Home > Products > Valid Products > TAF

000
FTUS43 KLBF 230400 AAB
TAFLBF
TAF AMD
KLBF 230419Z 2304/2324 VRB02KT P6SM FEW120
      TEMPO 2304/2306 1/2SM FG
     FM231800 22008KT P6SM SKC=



000
FTUS43 KLBF 230400 AAB
TAFLBF
TAF AMD
KLBF 230419Z 2304/2324 VRB02KT P6SM FEW120
      TEMPO 2304/2306 1/2SM FG
     FM231800 22008KT P6SM SKC=



000
FTUS43 KLBF 230400 AAA
TAFLBF
TAF AMD
KLBF 230411Z 2304/2324 VRB02KT P6SM FEW120
      TEMPO 2304/2306 1 1/2SM BR
     FM231800 22008KT P6SM SKC=



000
FTUS43 KLBF 222300
TAFLBF
TAF
KLBF 222320Z 2300/2324 VRB02KT P6SM FEW120
     FM231800 22008KT P6SM SKC=



000
FTUS43 KLBF 222300
TAFVTN
TAF
KVTN 222320Z 2300/2324 VRB02KT P6SM SKC
     FM231600 22008KT P6SM SKC=



000
FTUS43 KLBF 221700
TAFLBF
TAF
KLBF 221720Z 2218/2318 32007KT P6SM FEW040 SCT120
     FM230000 VRB04KT P6SM SCT050
     FM231500 18010KT P6SM SCT050=



000
FTUS43 KLBF 221700
TAFVTN
TAF
KVTN 221720Z 2218/2318 32009KT P6SM FEW040 SCT120
     FM230000 VRB05KT P6SM SKC
     FM231500 19010KT P6SM SCT050=



000
FTUS43 KLBF 221700
TAFLBF
TAF
KLBF 221720Z 2218/2318 32007KT P6SM FEW040 SCT120
     FM230000 VRB04KT P6SM SCT050
     FM231500 18010KT P6SM SCT050=



000
FTUS43 KLBF 221700
TAFVTN
TAF
KVTN 221720Z 2218/2318 32009KT P6SM FEW040 SCT120
     FM230000 VRB05KT P6SM SKC
     FM231500 19010KT P6SM SCT050=



000
FTUS43 KLBF 221600 AAB
TAFLBF
TAF AMD
KLBF 221626Z 2216/2312 28009KT P6SM VCSH SCT035 BKN090
     FM221800 33009KT P6SM SCT035 BKN090
     FM230000 VRB06KT P6SM SCT040=



000
FTUS43 KLBF 221600 AAB
TAFLBF
TAF AMD
KLBF 221626Z 2216/2312 28009KT P6SM VCSH SCT035 BKN090
     FM221800 33009KT P6SM SCT035 BKN090
     FM230000 VRB06KT P6SM SCT040=



000
FTUS43 KLBF 221600 AAC
TAFVTN
TAF AMD
KVTN 221615Z 2216/2312 30010KT P6SM SCT035 BKN060
     FM230000 35004KT P6SM SKC=



000
FTUS43 KLBF 221500 AAB
TAFVTN
TAF AMD
KVTN 221524Z 2215/2312 30010KT 4SM -SHRA SCT035 BKN060
      TEMPO 2215/2216 1SM -SHRA OVC035
     FM221700 32009KT P6SM BKN040
     FM230000 35006KT P6SM SKC=



000
FTUS43 KLBF 221400 AAA
TAFVTN
TAF AMD
KVTN 221428Z 2214/2312 29010KT P6SM -SHRA SCT035 OVC090
      TEMPO 2215/2217 3SM -SHRA OVC035
     FM221800 32009KT P6SM BKN040
     FM230000 35006KT P6SM SKC=



000
FTUS43 KLBF 221400 AAA
TAFLBF
TAF AMD
KLBF 221420Z 2214/2312 28009KT P6SM SCT035 BKN090
      TEMPO 2214/2218 4SM -RA BR OVC035
     FM221800 33009KT P6SM SCT035 BKN050
     FM230000 VRB06KT P6SM SCT040=



000
FTUS43 KLBF 221100
TAFVTN
TAF
KVTN 221120Z 2212/2312 22010KT P6SM OVC100
     FM221600 32009KT 2SM -SHRA OVC035
     FM221800 32009KT P6SM BKN040
     FM230000 35006KT P6SM SKC=



000
FTUS43 KLBF 221100
TAFLBF
TAF
KLBF 221120Z 2212/2312 18009KT P6SM SCT100 BKN250
     FM221400 26009KT P6SM OVC035
     FM221600 30009KT 4SM -RA BR OVC035
     FM221800 33009KT P6SM OVC035
     FM230000 VRB06KT P6SM SCT040=



000
FTUS43 KLBF 220500
TAFLBF
TAF
KLBF 220520Z 2206/2306 16012KT P6SM SKC
     FM221200 13006KT P6SM OVC100
     FM221500 25007KT 5SM -SHRA BR OVC025
     FM221800 33011KT P6SM OVC035
     FM230000 VRB02KT P6SM BKN050=



000
FTUS43 KLBF 220500
TAFVTN
TAF
KVTN 220520Z 2206/2306 17017KT P6SM SKC
     FM220900 20012KT P6SM SCT100 OVC200
     FM221200 22006KT P6SM SCT030 BKN100 OVC200
     FM221600 32009KT 3SM -SHRA OVC030
     FM221900 32009KT P6SM BKN050
     FM230000 35006KT P6SM SKC=



000
FTUS43 KLBF 220500
TAFLBF
TAF
KLBF 220520Z 2206/2306 16012KT P6SM SKC
     FM221200 13006KT P6SM OVC100
     FM221500 25007KT 5SM -SHRA BR OVC025
     FM221800 33011KT P6SM OVC035
     FM230000 VRB02KT P6SM BKN050=



000
FTUS43 KLBF 220500
TAFVTN
TAF
KVTN 220520Z 2206/2306 17017KT P6SM SKC
     FM220900 20012KT P6SM SCT100 OVC200
     FM221200 22006KT P6SM SCT030 BKN100 OVC200
     FM221600 32009KT 3SM -SHRA OVC030
     FM221900 32009KT P6SM BKN050
     FM230000 35006KT P6SM SKC=



000
FTUS43 KLBF 220100 AAA
TAFVTN
TAF AMD
KVTN 220128Z 2201/2224 14008KT P6SM SCT150
     FM220800 19010KT P6SM SCT007 OVC100
      TEMPO 2208/2212 4SM -SHRA BKN007 BKN030
     FM221200 21006KT 4SM BR OVC007
     FM221400 32009KT P6SM VCTS OVC030CB
     FM221600 32009KT P6SM BKN050=



000
FTUS43 KLBF 212300
TAFVTN
TAF
KVTN 212334Z 2200/2224 17015G24KT P6SM SCT150
     FM220400 18016KT P6SM SCT150
     FM220800 19010KT P6SM SCT007 OVC100
      TEMPO 2208/2212 4SM -SHRA BKN007 BKN030
     FM221200 21006KT 4SM BR OVC007
     FM221400 32009KT P6SM VCTS OVC030CB
     FM221600 32009KT P6SM BKN050=



000
FTUS43 KLBF 212300
TAFLBF
TAF
KLBF 212334Z 2200/2224 16010KT P6SM SCT200
     FM220600 16008KT P6SM SCT008 BKN030 OVC100
      TEMPO 2206/2210 4SM BR OVC008
     FM221000 15006KT P6SM SCT008 OVC030
      TEMPO 2210/2214 4SM -SHRA BKN008
     FM221400 21006KT P6SM VCTS SCT025CB BKN070
     FM221700 30006KT P6SM BKN070=



000
FTUS43 KLBF 211700
TAFLBF
TAF
KLBF 211734Z 2118/2218 17014G22KT P6SM SCT030
     FM220000 16012KT P6SM SCT200
     FM220600 16008KT P6SM SCT008 BKN030 OVC100
     FM221100 15006KT P6SM SCT008 OVC030 PROB30 2211/2214 5SM -SHRA
      BKN008
     FM221500 33005KT P6SM BKN100=



000
FTUS43 KLBF 211700
TAFVTN
TAF
KVTN 211734Z 2118/2218 18020G29KT P6SM SCT150
     FM220100 17015KT P6SM SCT150
     FM220800 22010KT P6SM BKN050 OVC100 PROB30 2211/2214 5SM -SHRA
      BKN030
     FM221500 31007KT P6SM BKN100=



000
FTUS43 KLBF 211100
TAFVTN
TAF
KVTN 211120Z 2112/2212 19010KT P6SM SKC
     FM211500 19012G19KT P6SM SKC
     FM211800 18020G29KT P6SM SCT150
     FM220100 17015KT P6SM SCT150
     FM220800 22010KT P6SM BKN050 OVC100=



000
FTUS43 KLBF 211100
TAFVTN
TAF
KVTN 211120Z 2112/2212 19010KT P6SM SKC
     FM211500 19012G19KT P6SM SKC
     FM211800 18020G29KT P6SM SCT150
     FM220100 17015KT P6SM SCT150
     FM220800 22010KT P6SM BKN050 OVC100=



000
FTUS43 KLBF 211100
TAFLBF
TAF
KLBF 211120Z 2112/2212 17006KT P6SM SKC
     FM211700 17012G19KT P6SM FEW030
     FM211900 17016G26KT P6SM SCT030
     FM220000 16012KT P6SM SCT200
     FM220800 16008KT P6SM BKN030 OVC100=



000
FTUS43 KLBF 211100
TAFLBF
TAF
KLBF 211120Z 2112/2212 17006KT P6SM SKC
     FM211700 17012G19KT P6SM FEW030
     FM211900 17016G26KT P6SM SCT030
     FM220000 16012KT P6SM SCT200
     FM220800 16008KT P6SM BKN030 OVC100=



000
FTUS43 KLBF 210500
TAFVTN
TAF
KVTN 210520Z 2106/2206 21011KT P6SM SKC
     FM211600 19015G20KT P6SM SKC
     FM211800 18020G27KT P6SM SCT150
     FM220100 17015KT P6SM SCT150=



000
FTUS43 KLBF 210500
TAFLBF
TAF
KLBF 210520Z 2106/2206 18007KT P6SM SKC
     FM211600 17011G16KT P6SM FEW030
     FM220000 15008KT P6SM SCT200=



000
FTUS43 KLBF 202300
TAFLBF
TAF
KLBF 202329Z 2100/2124 16005KT P6SM SKC
     FM211500 17011G16KT P6SM SCT030=



000
FTUS43 KLBF 202300
TAFVTN
TAF
KVTN 202329Z 2100/2124 16008KT P6SM SKC
     FM211500 19015G20KT P6SM SCT150=



000
FTUS43 KLBF 201700
TAFLBF
TAF
KLBF 201720Z 2018/2118 17010KT P6SM SKC
     FM210000 14006KT P6SM SKC
     FM211500 17011G16KT P6SM SCT030=



000
FTUS43 KLBF 201700
TAFVTN
TAF
KVTN 201720Z 2018/2118 18010G18KT P6SM SKC
     FM210000 16007KT P6SM SKC
     FM211500 19013G18KT P6SM SKC=



000
FTUS43 KLBF 201100
TAFLBF
TAF
KLBF 201120Z 2012/2112 VRB06KT P6SM SKC
     FM201700 17010KT P6SM SKC
     FM210000 14006KT P6SM SKC=



000
FTUS43 KLBF 201100
TAFVTN
TAF
KVTN 201120Z 2012/2112 VRB06KT P6SM SKC
     FM201700 18010G18KT P6SM SKC
     FM210000 16007KT P6SM SKC=



    US Dept of Commerce
    National Oceanic and Atmospheric Administration
    National Weather Service
    1325 East West Highway
    Silver Spring, MD 20910
    Page Author: NWS Internet Services Team
Disclaimer
Information Quality
Credits
Glossary
Privacy Policy
Freedom of Information Act (FOIA)
About Us
Career Opportunities